Sheridan, IN

4:52 PM EST on February 25, 2017 (GMT -0500)
Indianapolis Terry

Weather History for KTYQ - November, 2012

Change the Weather History Date:

Friday, November 30, 2012

  Actual Average (KEYE) Record (KEYE)
Temperature  
Mean Temperature 45 °F -  
Max Temperature 56 °F 44 °F 64 °F (1998)
Min Temperature 34 °F 31 °F 24 °F (2002)
Degree Days  
Heating Degree Days 20    
Moisture  
Dew Point 30 °F    
Average Humidity 58    
Maximum Humidity 81    
Minimum Humidity 38    
Precipitation  
Precipitation 0.00 in - - ()
Sea Level Pressure  
Sea Level Pressure 30.14 in    
Wind  
Wind Speed 7 mph (SSW)    
Max Wind Speed 16 mph    
Max Gust Speed 21 mph    
Visibility 10 miles    
Events      
Averages and records for this station are not official NWS values.
T = Trace of Precipitation, MM = Missing Value Source: NWS Daily Summary

Daily Weather History Graph

Daily Weather History Graph

Search for Another Location

Airport or City:

Trip Planner

Search our weather history database for the weather conditions in past years. The results will help you decide how hot, cold, wet, or windy it might be!

Date:

Astronomy

Nov. 30, 2012 Rise Set
Actual Time 7:47 AM EST 5:20 PM EST
Civil Twilight 7:17 AM EST 5:50 PM EST
Nautical Twilight 6:43 AM EST 6:23 PM EST
Astronomical Twilight 6:10 AM EST 6:56 PM EST
Moon 7:14 PM EST (11/30) 9:18 AM EST (11/30)
Length of Visible Light 10h 33m
Length of Day
9h 33m
Waning Gibbous, 96% of the Moon is Illuminated
Nov 30
Waning Gibbous
Dec 6
Last Quarter
Dec 13
New
Dec 20
First Quarter
Dec 28
Full

Hourly Weather History & Observations

Time (EST) Temp. Windchill Dew Point Humidity Pressure Visibility Wind Dir Wind Speed Gust Speed Precip Events Conditions
12:15 AM 37.9 °F 34.4 °F 26.6 °F 64% 30.16 in 10.0 mi SSE 4.6 mph - N/A   Clear
12:35 AM 37.8 °F 34.2 °F 26.6 °F 64% 30.16 in 10.0 mi SE 4.6 mph - N/A   Clear
12:55 AM 36.7 °F 32.9 °F 26.6 °F 67% 30.16 in 10.0 mi SSE 4.6 mph - N/A   Clear
1:15 AM 35.8 °F 31.9 °F 26.6 °F 69% 30.16 in 10.0 mi SSE 4.6 mph - N/A   Clear
1:35 AM 34.2 °F 30.0 °F 26.4 °F 73% 30.16 in 10.0 mi SSE 4.6 mph - N/A   Clear
1:55 AM 34.5 °F 30.4 °F 26.4 °F 72% 30.16 in 10.0 mi South 4.6 mph - N/A   Clear
2:15 AM 35.6 °F - 27.1 °F 71% 30.16 in 10.0 mi Calm Calm - N/A   Clear
2:35 AM 35.4 °F 31.5 °F 27.1 °F 72% 30.15 in 10.0 mi South 4.6 mph - N/A   Clear
2:55 AM 34.7 °F 31.8 °F 26.6 °F 72% 30.16 in 10.0 mi South 3.5 mph - N/A   Clear
3:15 AM 35.8 °F 30.9 °F 26.6 °F 69% 30.16 in 10.0 mi South 5.8 mph - N/A   Clear
3:35 AM 36.0 °F 31.1 °F 26.4 °F 68% 30.16 in 10.0 mi South 5.8 mph - N/A   Clear
3:55 AM 36.3 °F 30.8 °F 26.6 °F 68% 30.16 in 10.0 mi SSW 6.9 mph - N/A   Clear
4:15 AM 37.9 °F 32.1 °F 26.6 °F 64% 30.15 in 10.0 mi SSW 8.1 mph - N/A   Clear
4:35 AM 40.8 °F 34.5 °F 27.7 °F 60% 30.15 in 10.0 mi SSW 10.4 mph - N/A   Clear
4:55 AM 41.7 °F 36.1 °F 27.5 °F 57% 30.15 in 10.0 mi SSW 9.2 mph - N/A   Clear
5:15 AM 41.9 °F 36.3 °F 27.3 °F 56% 30.15 in 10.0 mi SSW 9.2 mph - N/A   Clear
5:35 AM 41.4 °F 35.7 °F 27.1 °F 57% 30.15 in 10.0 mi SSW 9.2 mph - N/A   Clear
5:55 AM 41.0 °F 35.2 °F 26.6 °F 57% 30.14 in 10.0 mi SSW 9.2 mph - N/A   Clear
6:15 AM 41.0 °F 34.7 °F 26.6 °F 57% 30.15 in 10.0 mi SSW 10.4 mph - N/A   Clear
6:55 AM 39.4 °F 33.8 °F 26.2 °F 59% 30.14 in 10.0 mi South 8.1 mph - N/A   Clear
7:15 AM 37.4 °F 30.8 °F 26.2 °F 64% 30.14 in 10.0 mi South 9.2 mph - N/A   Clear
7:35 AM 38.1 °F 31.7 °F 26.6 °F 63% 30.15 in 10.0 mi SSW 9.2 mph - N/A   Clear
7:55 AM 39.2 °F 32.5 °F 26.6 °F 61% 30.15 in 10.0 mi SSW 10.4 mph - N/A   Clear
8:15 AM 40.1 °F 34.1 °F 26.6 °F 59% 30.15 in 10.0 mi SSW 9.2 mph - N/A   Clear
8:35 AM 40.6 °F 33.8 °F 26.8 °F 58% 30.14 in 10.0 mi SSW 11.5 mph - N/A   Clear
8:55 AM 41.9 °F 35.4 °F 27.0 °F 55% 30.14 in 10.0 mi SSW 11.5 mph - N/A   Clear
9:15 AM 43.5 °F 37.5 °F 27.3 °F 53% 30.14 in 10.0 mi SSW 11.5 mph - N/A   Clear
9:35 AM 45.7 °F 39.5 °F 27.7 °F 49% 30.14 in 10.0 mi SSW 13.8 mph - N/A   Mostly Cloudy
9:55 AM 48.2 °F - 28.4 °F 46% 30.14 in 10.0 mi SSW 16.1 mph 19.6 mph N/A   Overcast
10:15 AM 47.8 °F - 28.9 °F 48% 30.15 in 10.0 mi SW 13.8 mph 20.7 mph N/A   Mostly Cloudy
10:35 AM 48.7 °F - 29.3 °F 47% 30.15 in 10.0 mi SW 12.7 mph - N/A   Mostly Cloudy
10:55 AM 50.0 °F - 30.0 °F 46% 30.15 in 10.0 mi SW 13.8 mph 18.4 mph N/A   Mostly Cloudy
11:15 AM 50.4 °F - 30.6 °F 47% 30.15 in 10.0 mi SW 12.7 mph 17.3 mph N/A   Overcast
11:35 AM 50.9 °F - 30.4 °F 45% 30.14 in 10.0 mi SW 11.5 mph - N/A   Overcast
11:55 AM 51.4 °F - 30.6 °F 45% 30.14 in 10.0 mi SSW 12.7 mph 18.4 mph N/A   Overcast
12:15 PM 53.2 °F - 30.6 °F 42% 30.13 in 10.0 mi SW 12.7 mph - N/A   Scattered Clouds
12:35 PM 54.3 °F - 30.7 °F 41% 30.12 in 10.0 mi SW 12.7 mph - N/A   Clear
12:55 PM 55.6 °F - 31.5 °F 40% 30.12 in 10.0 mi SW 13.8 mph 17.3 mph N/A   Clear
1:15 PM 55.9 °F - 31.3 °F 39% 30.11 in 10.0 mi WSW 12.7 mph 18.4 mph N/A   Clear
1:35 PM 56.3 °F - 31.1 °F 38% 30.11 in 10.0 mi SW 15.0 mph - N/A   Clear
1:55 PM 56.5 °F - 31.6 °F 39% 30.10 in 10.0 mi SW 12.7 mph - N/A   Clear
2:15 PM 56.5 °F - 31.6 °F 39% 30.10 in 10.0 mi SSW 11.5 mph - N/A   Clear
2:35 PM 56.3 °F - 31.8 °F 39% 30.10 in 10.0 mi SSW 12.7 mph - N/A   Clear
2:55 PM 56.5 °F - 32.0 °F 39% 30.09 in 10.0 mi SW 13.8 mph - N/A   Clear
3:15 PM 56.5 °F - 32.2 °F 40% 30.09 in 10.0 mi SSW 10.4 mph - N/A   Clear
3:35 PM 56.5 °F - 32.2 °F 40% 30.09 in 10.0 mi SW 11.5 mph - N/A   Clear
3:55 PM 56.3 °F - 32.7 °F 41% 30.10 in 10.0 mi SW 11.5 mph - N/A   Clear
4:15 PM 56.1 °F - 33.1 °F 42% 30.11 in 10.0 mi SSW 10.4 mph - N/A   Clear
4:35 PM 55.4 °F - 33.3 °F 43% 30.11 in 10.0 mi SSW 9.2 mph - N/A   Clear
4:55 PM 53.8 °F - 33.8 °F 47% 30.11 in 10.0 mi SSW 8.1 mph - N/A   Clear
5:15 PM 51.8 °F - 33.8 °F 50% 30.12 in 10.0 mi SSW 6.9 mph - N/A   Clear
5:35 PM 50.2 °F - 33.4 °F 53% 30.12 in 10.0 mi SSW 5.8 mph - N/A   Clear
5:55 PM 49.5 °F - 33.1 °F 53% 30.13 in 10.0 mi SSW 5.8 mph - N/A   Clear
6:15 PM 48.0 °F - 33.1 °F 56% 30.13 in 10.0 mi SSW 5.8 mph - N/A   Clear
6:35 PM 48.0 °F - 33.8 °F 58% 30.13 in 10.0 mi SSW 6.9 mph - N/A   Clear
6:55 PM 48.2 °F - 33.8 °F 58% 30.14 in 10.0 mi SSW 6.9 mph - N/A   Clear
7:15 PM 47.8 °F - 34.3 °F 60% 30.14 in 10.0 mi SSW 6.9 mph - N/A   Clear
7:35 PM 48.2 °F - 34.9 °F 60% 30.15 in 10.0 mi SSW 9.2 mph - N/A   Clear
7:55 PM 49.3 °F - 35.4 °F 59% 30.15 in 10.0 mi SW 5.8 mph - N/A   Clear
8:15 PM 46.8 °F - 34.9 °F 63% 30.16 in 10.0 mi SSW 4.6 mph - N/A   Clear
8:35 PM 46.4 °F - 34.7 °F 64% 30.16 in 10.0 mi Calm Calm - N/A   Clear
8:55 PM 44.8 °F - 34.0 °F 66% 30.16 in 10.0 mi Calm Calm - N/A   Mostly Cloudy
9:15 PM 42.4 °F - 33.6 °F 71% 30.16 in 10.0 mi Calm Calm - N/A   Scattered Clouds
9:35 PM 41.4 °F - 33.6 °F 74% 30.16 in 10.0 mi Calm Calm - N/A   Clear
9:55 PM 39.6 °F 37.4 °F 32.5 °F 76% 30.16 in 10.0 mi ESE 3.5 mph - N/A   Clear
10:15 PM 37.9 °F 35.5 °F 32.0 °F 79% 30.16 in 10.0 mi ESE 3.5 mph - N/A   Clear
10:35 PM 37.8 °F 34.2 °F 32.0 °F 80% 30.16 in 10.0 mi ESE 4.6 mph - N/A   Clear
10:55 PM 36.5 °F 33.9 °F 31.3 °F 81% 30.16 in 10.0 mi ESE 3.5 mph - N/A   Clear
11:15 PM 39.4 °F 37.2 °F 33.3 °F 79% 30.16 in 10.0 mi SSE 3.5 mph - N/A   Clear
11:35 PM 37.9 °F 34.4 °F 32.4 °F 80% 30.16 in 10.0 mi SSE 4.6 mph - N/A   Clear
11:55 PM 38.1 °F 33.7 °F 32.0 °F 79% 30.16 in 10.0 mi SSE 5.8 mph - N/A   Clear